createdAt,value
2023-04-14T00:01:00.502Z,6.40
2023-04-14T00:03:27.208Z,6.37
2023-04-14T00:05:53.813Z,6.86
2023-04-14T00:08:20.394Z,6.76
2023-04-14T00:10:47.000Z,6.32
2023-04-14T00:13:13.453Z,6.37
2023-04-14T00:15:41.606Z,6.57
2023-04-14T00:18:08.134Z,6.17
2023-04-14T00:20:34.771Z,5.97
2023-04-14T00:23:01.233Z,6.38
2023-04-14T00:25:27.717Z,6.19
2023-04-14T00:27:54.384Z,6.34
2023-04-14T00:30:20.877Z,6.02
2023-04-14T00:32:47.427Z,6.21
2023-04-14T00:35:13.935Z,6.26
2023-04-14T00:37:40.396Z,6.36
2023-04-14T00:40:11.031Z,6.52
2023-04-14T00:42:47.054Z,6.43
2023-04-14T00:45:14.390Z,6.42
2023-04-14T00:47:42.232Z,6.07
2023-04-14T00:50:09.329Z,6.27
2023-04-14T00:52:37.131Z,6.43
2023-04-14T00:55:07.293Z,6.26
2023-04-14T00:57:33.955Z,6.46
2023-04-14T01:00:00.874Z,6.27
2023-04-14T01:02:27.731Z,6.21
2023-04-14T01:04:55.002Z,6.08
2023-04-14T01:07:23.017Z,6.09
2023-04-14T01:09:50.249Z,6.23
2023-04-14T01:12:35.991Z,6.44
2023-04-14T01:15:12.677Z,6.23
2023-04-14T01:17:45.972Z,6.45
2023-04-14T01:20:22.884Z,6.13
2023-04-14T01:22:53.815Z,6.35
2023-04-14T01:25:22.243Z,6.38
2023-04-14T01:27:55.010Z,6.46
2023-04-14T01:30:31.108Z,6.42
2023-04-14T01:33:01.495Z,6.30
2023-04-14T01:35:34.758Z,6.27
2023-04-14T01:38:04.995Z,6.14
2023-04-14T01:40:32.591Z,6.30
2023-04-14T01:43:04.001Z,6.18
2023-04-14T01:45:42.985Z,6.26
2023-04-14T01:48:11.677Z,6.22
2023-04-14T01:50:41.051Z,6.76
2023-04-14T01:53:08.728Z,6.17
2023-04-14T01:55:37.801Z,5.77
2023-04-14T01:58:07.080Z,6.05
2023-04-14T02:00:35.618Z,6.14
2023-04-14T02:03:03.932Z,6.40
2023-04-14T02:05:32.055Z,5.73
2023-04-14T02:07:59.740Z,6.53
2023-04-14T02:10:27.581Z,6.19
2023-04-14T02:12:57.096Z,6.04
2023-04-14T02:15:25.818Z,6.25
2023-04-14T02:17:52.766Z,6.15
2023-04-14T02:20:21.153Z,6.51
2023-04-14T02:22:47.839Z,6.42
2023-04-14T02:25:14.385Z,6.51
2023-04-14T02:27:54.566Z,6.43
2023-04-14T02:30:24.306Z,6.44
2023-04-14T02:32:55.546Z,6.33
2023-04-14T02:35:26.800Z,6.36
2023-04-14T02:38:04.782Z,6.22
2023-04-14T02:40:35.138Z,6.10
2023-04-14T02:43:04.512Z,5.94
2023-04-14T02:45:32.428Z,6.36
2023-04-14T02:48:01.606Z,6.52
2023-04-14T02:50:32.226Z,6.43
2023-04-14T02:53:07.553Z,6.70
2023-04-14T02:55:37.471Z,6.76
2023-04-14T02:58:04.781Z,6.74
2023-04-14T03:00:35.740Z,6.51
2023-04-14T03:03:03.974Z,6.65
2023-04-14T03:05:32.036Z,6.61
2023-04-14T03:08:08.294Z,6.52
2023-04-14T03:10:37.148Z,6.84
2023-04-14T03:13:04.803Z,6.80
2023-04-14T03:15:31.784Z,6.62
2023-04-14T03:17:58.744Z,6.68
2023-04-14T03:20:26.902Z,6.53
2023-04-14T03:23:05.139Z,6.44
2023-04-14T03:25:38.245Z,6.59
2023-04-14T03:28:13.526Z,6.67
2023-04-14T03:30:43.235Z,6.70
2023-04-14T03:33:12.211Z,6.54
2023-04-14T03:35:39.370Z,6.44
2023-04-14T03:38:09.725Z,6.30
2023-04-14T03:40:38.613Z,6.77
2023-04-14T03:43:09.775Z,6.19
2023-04-14T03:45:41.472Z,6.05
2023-04-14T03:48:11.849Z,6.21
2023-04-14T03:50:46.400Z,6.51
2023-04-14T03:53:14.986Z,6.33
2023-04-14T03:55:43.574Z,6.51
2023-04-14T03:58:12.059Z,6.37
2023-04-14T04:00:40.065Z,6.47
2023-04-14T04:03:06.807Z,6.47
2023-04-14T04:05:33.808Z,6.49
2023-04-14T04:08:03.118Z,6.33
2023-04-14T04:10:32.792Z,6.56
2023-04-14T04:13:00.730Z,6.27
2023-04-14T04:15:31.318Z,6.53
2023-04-14T04:17:58.501Z,6.60
2023-04-14T04:20:26.011Z,6.56
2023-04-14T04:22:56.416Z,6.31
2023-04-14T04:25:23.142Z,5.89
2023-04-14T04:27:59.767Z,6.01
2023-04-14T04:30:27.787Z,6.28
2023-04-14T04:32:54.528Z,6.41
2023-04-14T04:35:22.275Z,6.62
2023-04-14T04:37:49.781Z,6.36
2023-04-14T04:40:16.870Z,6.50
2023-04-14T04:42:44.101Z,6.59
2023-04-14T04:45:19.271Z,6.58
2023-04-14T04:47:46.085Z,6.75
2023-04-14T04:50:13.690Z,6.78
2023-04-14T04:52:40.630Z,6.75
2023-04-14T04:55:07.354Z,6.82
2023-04-14T04:57:33.815Z,6.09
2023-04-14T05:00:00.641Z,6.35
2023-04-14T05:02:27.444Z,6.75
2023-04-14T05:04:54.163Z,6.66
2023-04-14T05:07:21.047Z,6.89
2023-04-14T05:09:47.499Z,6.87
2023-04-14T05:12:13.983Z,6.88
2023-04-14T05:14:40.413Z,6.83
2023-04-14T05:17:06.931Z,6.86
2023-04-14T05:19:33.403Z,6.67
2023-04-14T05:21:59.889Z,6.75
2023-04-14T05:24:27.295Z,6.83
2023-04-14T05:27:12.240Z,6.97
2023-04-14T05:29:40.002Z,6.96
2023-04-14T05:32:06.459Z,6.92
2023-04-14T05:34:32.937Z,6.95
2023-04-14T05:36:59.373Z,6.35
2023-04-14T05:39:25.879Z,6.35
2023-04-14T05:41:52.407Z,6.86
2023-04-14T05:44:18.869Z,6.81
2023-04-14T05:46:45.429Z,7.08
2023-04-14T05:49:11.926Z,6.82
2023-04-14T05:51:38.706Z,6.91
2023-04-14T05:54:05.757Z,6.98
2023-04-14T05:56:32.193Z,6.68
2023-04-14T05:58:58.664Z,6.90
2023-04-14T06:01:25.311Z,6.50
2023-04-14T06:03:51.880Z,6.92
2023-04-14T06:06:20.055Z,6.91
2023-04-14T06:08:46.498Z,6.75
2023-04-14T06:11:14.215Z,6.46
2023-04-14T06:13:40.805Z,6.46
2023-04-14T06:16:07.494Z,6.18
2023-04-14T06:18:34.004Z,6.35
2023-04-14T06:21:01.374Z,6.31
2023-04-14T06:23:28.056Z,6.76
2023-04-14T06:25:55.110Z,6.03
2023-04-14T06:28:23.969Z,6.04
2023-04-14T06:30:50.495Z,5.95
2023-04-14T06:33:16.962Z,6.26
2023-04-14T06:35:46.420Z,6.71
2023-04-14T06:38:12.917Z,6.71
2023-04-14T06:40:39.408Z,6.44
2023-04-14T06:43:06.329Z,6.64
2023-04-14T06:45:32.827Z,6.52
2023-04-14T06:47:59.508Z,6.60
2023-04-14T06:50:26.019Z,6.68
2023-04-14T06:52:52.482Z,6.85
2023-04-14T06:55:18.908Z,6.94
2023-04-14T06:57:45.628Z,6.96
2023-04-14T07:00:12.464Z,7.02
2023-04-14T07:02:39.222Z,7.00
2023-04-14T07:05:06.322Z,6.82
2023-04-14T07:07:36.964Z,6.51
2023-04-14T07:10:03.559Z,6.92
2023-04-14T07:12:30.344Z,7.13
2023-04-14T07:14:56.781Z,7.25
2023-04-14T07:17:23.297Z,6.81
2023-04-14T07:19:49.781Z,6.76
2023-04-14T07:22:16.661Z,6.74
2023-04-14T07:24:43.159Z,6.91
2023-04-14T07:27:15.070Z,7.10
2023-04-14T07:29:42.225Z,7.21
2023-04-14T07:32:08.784Z,7.26
2023-04-14T07:34:35.380Z,7.17
2023-04-14T07:37:02.139Z,6.93
2023-04-14T07:39:29.484Z,7.30
2023-04-14T07:41:58.629Z,7.30
2023-04-14T07:44:25.174Z,7.06
2023-04-14T07:46:51.713Z,6.62
2023-04-14T07:49:18.245Z,6.97
2023-04-14T07:51:44.792Z,7.21
2023-04-14T07:54:11.476Z,7.18
2023-04-14T07:56:37.974Z,7.03
2023-04-14T07:59:04.415Z,7.11
2023-04-14T08:01:30.990Z,7.15
2023-04-14T08:03:57.787Z,6.94
2023-04-14T08:06:24.445Z,7.29
2023-04-14T08:08:51.692Z,7.22
2023-04-14T08:11:18.131Z,6.93
2023-04-14T08:13:44.702Z,6.57
2023-04-14T08:16:11.252Z,6.59
2023-04-14T08:18:39.367Z,6.62
2023-04-14T08:21:05.886Z,6.94
2023-04-14T08:23:32.492Z,7.12
2023-04-14T08:25:59.032Z,7.24
2023-04-14T08:28:25.757Z,7.14
2023-04-14T08:30:52.211Z,7.48
2023-04-14T08:33:18.751Z,7.49
2023-04-14T08:35:45.414Z,7.39
2023-04-14T08:38:12.579Z,7.47
2023-04-14T08:40:43.301Z,7.54
2023-04-14T08:43:13.014Z,7.30
2023-04-14T08:45:41.879Z,7.79
2023-04-14T08:48:09.151Z,7.34
2023-04-14T08:50:37.667Z,7.18
2023-04-14T08:53:06.088Z,7.10
2023-04-14T08:55:33.411Z,7.49
2023-04-14T08:58:01.228Z,7.43
2023-04-14T09:00:27.857Z,7.36
2023-04-14T09:02:54.925Z,7.46
2023-04-14T09:05:21.897Z,7.20
2023-04-14T09:07:48.543Z,7.56
2023-04-14T09:10:15.386Z,7.29
2023-04-14T09:12:42.259Z,7.62
2023-04-14T09:15:09.269Z,7.24
2023-04-14T09:17:36.768Z,7.25
2023-04-14T09:20:34.788Z,7.75
2023-04-14T09:22:50.240Z,7.67
2023-04-14T09:25:18.666Z,7.99
2023-04-14T09:27:45.523Z,7.42
2023-04-14T09:30:12.237Z,7.57
2023-04-14T09:32:39.794Z,7.68
2023-04-14T09:35:07.011Z,7.78
2023-04-14T09:37:43.784Z,7.83
2023-04-14T09:40:11.201Z,7.90
2023-04-14T09:42:41.456Z,8.00
2023-04-14T09:45:08.408Z,8.55
2023-04-14T09:47:35.030Z,8.45
2023-04-14T09:50:03.461Z,8.69
2023-04-14T09:52:37.799Z,8.57
2023-04-14T09:55:06.904Z,8.68
2023-04-14T09:57:34.638Z,8.48
2023-04-14T10:00:01.295Z,8.59
2023-04-14T10:02:27.883Z,8.53
2023-04-14T10:05:07.204Z,8.95
2023-04-14T10:07:33.800Z,9.25
2023-04-14T10:10:06.020Z,8.80
2023-04-14T10:12:32.743Z,8.57
2023-04-14T10:15:00.164Z,8.34
2023-04-14T10:17:29.503Z,8.72
2023-04-14T10:19:56.850Z,8.99
2023-04-14T10:22:23.652Z,9.11
2023-04-14T10:24:51.268Z,9.20
2023-04-14T10:27:18.094Z,9.23
2023-04-14T10:29:44.598Z,9.38
2023-04-14T10:32:14.093Z,9.01
2023-04-14T10:34:53.299Z,8.79
2023-04-14T10:37:19.931Z,9.05
2023-04-14T10:39:54.376Z,9.33
2023-04-14T10:42:21.181Z,9.49
2023-04-14T10:45:01.188Z,9.46
2023-04-14T10:47:28.101Z,8.95
2023-04-14T10:49:56.705Z,9.26
2023-04-14T10:52:26.378Z,8.99
2023-04-14T10:55:07.654Z,9.55
2023-04-14T10:57:40.814Z,9.18
2023-04-14T11:00:19.616Z,9.18
2023-04-14T11:02:58.445Z,9.17
2023-04-14T11:05:25.693Z,8.82
2023-04-14T11:07:56.672Z,8.49
2023-04-14T11:10:24.031Z,8.65
2023-04-14T11:13:04.132Z,8.56
2023-04-14T11:15:50.667Z,8.31
2023-04-14T11:18:26.032Z,8.23
2023-04-14T11:20:53.054Z,8.96
2023-04-14T11:23:26.386Z,8.78
2023-04-14T11:25:53.649Z,8.49
2023-04-14T11:28:32.559Z,9.01
2023-04-14T11:31:00.521Z,8.57
2023-04-14T11:33:37.228Z,9.24
2023-04-14T11:36:05.636Z,9.40
2023-04-14T11:38:35.465Z,9.54
2023-04-14T11:41:02.283Z,9.57
2023-04-14T11:43:30.636Z,9.65
2023-04-14T11:45:57.555Z,9.75
2023-04-14T11:48:24.146Z,9.62
2023-04-14T11:50:50.890Z,9.88
2023-04-14T11:53:18.217Z,9.99
2023-04-14T11:55:46.328Z,9.77
2023-04-14T11:58:13.225Z,9.93
2023-04-14T12:00:41.020Z,10.05
2023-04-14T12:03:08.010Z,10.04
2023-04-14T12:05:35.597Z,9.99
2023-04-14T12:08:07.562Z,9.07
2023-04-14T12:10:37.340Z,9.36
2023-04-14T12:13:04.909Z,9.18
2023-04-14T12:15:32.503Z,9.36
2023-04-14T12:17:59.970Z,9.75
2023-04-14T12:20:27.166Z,10.14
2023-04-14T12:23:01.150Z,10.11
2023-04-14T12:25:31.368Z,10.27
2023-04-14T12:27:57.925Z,9.99
2023-04-14T12:30:26.325Z,10.03
2023-04-14T12:32:52.983Z,9.78
2023-04-14T12:35:23.920Z,10.11
2023-04-14T12:37:51.580Z,10.07
2023-04-14T12:40:18.551Z,10.26
2023-04-14T12:42:47.368Z,9.53
2023-04-14T12:45:14.817Z,9.92
2023-04-14T12:47:41.709Z,10.07
2023-04-14T12:50:25.849Z,9.92
2023-04-14T12:52:52.529Z,10.45
2023-04-14T12:55:23.082Z,10.54
2023-04-14T12:57:53.688Z,10.45
2023-04-14T13:00:23.933Z,10.32
2023-04-14T13:02:51.335Z,10.63
2023-04-14T13:05:18.017Z,10.44
2023-04-14T13:07:44.509Z,10.34
2023-04-14T13:10:11.444Z,10.53
2023-04-14T13:12:38.247Z,10.41
2023-04-14T13:15:05.601Z,10.37
2023-04-14T13:17:32.421Z,10.31
2023-04-14T13:19:59.035Z,10.97
2023-04-14T13:22:25.687Z,10.70
2023-04-14T13:24:52.355Z,10.13
2023-04-14T13:27:19.307Z,10.05
2023-04-14T13:29:46.095Z,10.20
2023-04-14T13:32:12.939Z,10.19
2023-04-14T13:34:39.960Z,10.45
2023-04-14T13:37:06.515Z,10.86
2023-04-14T13:39:33.100Z,10.25
2023-04-14T13:41:59.636Z,9.88
2023-04-14T13:44:26.140Z,10.26
2023-04-14T13:46:52.769Z,10.16
2023-04-14T13:49:19.333Z,9.92
2023-04-14T13:51:45.894Z,9.60
2023-04-14T13:54:12.328Z,9.59
2023-04-14T13:56:38.824Z,9.71
2023-04-14T13:59:05.345Z,9.69
2023-04-14T14:01:31.933Z,9.85
2023-04-14T14:03:58.959Z,9.87
2023-04-14T14:06:33.910Z,10.06
2023-04-14T14:09:06.066Z,10.06
2023-04-14T14:11:33.330Z,9.48
2023-04-14T14:14:00.269Z,9.72
2023-04-14T14:18:57.227Z,9.48
2023-04-14T14:21:23.712Z,9.38
2023-04-14T14:23:50.238Z,9.37
2023-04-14T14:26:16.755Z,9.41
2023-04-14T14:28:44.527Z,9.43
2023-04-14T14:31:11.092Z,9.30
2023-04-14T14:33:38.095Z,9.42
2023-04-14T14:36:05.101Z,9.47
2023-04-14T14:38:31.639Z,9.44
2023-04-14T14:40:58.103Z,9.34
2023-04-14T14:43:24.627Z,9.26
2023-04-14T14:45:51.260Z,8.80
2023-04-14T14:48:17.829Z,8.95
2023-04-14T14:50:44.322Z,8.96
2023-04-14T14:53:10.727Z,8.80
2023-04-14T14:55:37.213Z,8.84
2023-04-14T14:58:03.910Z,9.01
2023-04-14T15:00:30.753Z,9.31
2023-04-14T15:02:57.488Z,9.03
2023-04-14T15:05:24.129Z,9.43
2023-04-14T15:07:50.983Z,9.15
2023-04-14T15:10:17.569Z,9.05
2023-04-14T15:12:44.085Z,9.04
2023-04-14T15:15:10.778Z,9.12
2023-04-14T15:17:37.716Z,9.27
2023-04-14T15:20:04.876Z,8.99
2023-04-14T15:22:32.088Z,8.83
2023-04-14T15:24:58.605Z,9.14
2023-04-14T15:27:25.350Z,8.85
2023-04-14T15:29:51.829Z,8.82
2023-04-14T15:32:24.209Z,8.76
2023-04-14T15:34:52.112Z,8.75
2023-04-14T15:37:18.675Z,9.01
2023-04-14T15:39:45.335Z,9.19
2023-04-14T15:42:11.851Z,8.99
2023-04-14T15:44:38.340Z,9.01
2023-04-14T15:47:05.140Z,9.04
2023-04-14T15:49:31.649Z,8.97
2023-04-14T15:51:58.125Z,8.92
2023-04-14T15:54:24.813Z,9.34
2023-04-14T15:56:52.479Z,9.69
2023-04-14T15:59:19.052Z,9.13
2023-04-14T16:01:46.377Z,9.21
2023-04-14T16:04:13.149Z,9.04
2023-04-14T16:06:40.133Z,8.87
2023-04-14T16:09:06.895Z,8.90
2023-04-14T16:11:36.375Z,9.13
2023-04-14T16:14:03.213Z,8.78
2023-04-14T16:16:29.952Z,8.96
2023-04-14T16:18:56.493Z,8.74
2023-04-14T16:21:22.952Z,8.81
2023-04-14T16:23:49.442Z,8.84
2023-04-14T16:26:15.995Z,8.81
2023-04-14T16:28:42.765Z,8.85
2023-04-14T16:31:09.457Z,8.43
2023-04-14T16:33:36.042Z,8.40
2023-04-14T16:36:03.066Z,8.25
2023-04-14T16:38:29.756Z,8.53
2023-04-14T16:40:57.318Z,8.53
2023-04-14T16:43:24.876Z,8.66
2023-04-14T16:45:51.890Z,8.73
2023-04-14T16:48:18.886Z,8.57
2023-04-14T16:50:48.691Z,8.52
2023-04-14T16:53:15.249Z,8.25
2023-04-14T16:55:41.852Z,8.18
2023-04-14T16:58:09.774Z,8.31
2023-04-14T17:00:37.446Z,8.21
2023-04-14T17:03:04.751Z,8.16
2023-04-14T17:05:31.637Z,8.21
2023-04-14T17:07:58.483Z,8.31
2023-04-14T17:10:26.257Z,7.91
2023-04-14T17:12:53.721Z,8.14
2023-04-14T17:15:20.221Z,8.52
2023-04-14T17:17:46.758Z,8.05
2023-04-14T17:20:14.942Z,8.16
2023-04-14T17:22:41.819Z,8.06
2023-04-14T17:25:08.662Z,8.12
2023-04-14T17:27:35.111Z,8.19
2023-04-14T17:30:03.158Z,8.32
2023-04-14T17:32:29.667Z,8.09
2023-04-14T17:34:56.657Z,8.14
2023-04-14T17:37:23.450Z,8.39
2023-04-14T17:39:50.007Z,8.32
2023-04-14T17:42:16.569Z,8.44
2023-04-14T17:44:43.483Z,8.10
2023-04-14T17:47:16.772Z,7.96
2023-04-14T17:49:43.977Z,8.00
2023-04-14T17:52:19.532Z,7.97
2023-04-14T17:54:46.559Z,7.96
2023-04-14T17:57:13.239Z,8.03
2023-04-14T17:59:41.455Z,7.88
2023-04-14T18:02:08.965Z,7.89
2023-04-14T18:04:35.927Z,7.94
2023-04-14T18:07:02.526Z,7.93
2023-04-14T18:09:29.120Z,7.81
2023-04-14T18:11:56.151Z,7.62
2023-04-14T18:14:22.633Z,7.56
2023-04-14T18:16:49.238Z,7.83
2023-04-14T18:19:15.879Z,7.84
2023-04-14T18:21:44.433Z,7.91
2023-04-14T18:26:42.084Z,8.13
2023-04-14T18:29:08.600Z,8.10
2023-04-14T18:31:35.278Z,8.03
2023-04-14T18:34:05.572Z,8.03
2023-04-14T18:36:32.626Z,8.02
2023-04-14T18:39:00.160Z,7.98
2023-04-14T18:41:26.975Z,7.96
2023-04-14T18:43:53.660Z,8.06
2023-04-14T18:46:21.313Z,8.24
2023-04-14T18:48:48.425Z,8.32
2023-04-14T18:51:16.024Z,8.43
2023-04-14T18:53:44.626Z,8.31
2023-04-14T18:56:11.233Z,8.00
2023-04-14T18:58:38.245Z,7.91
2023-04-14T19:01:04.790Z,8.02
2023-04-14T19:03:31.870Z,7.86
2023-04-14T19:05:58.985Z,7.78
2023-04-14T19:08:25.698Z,7.71
2023-04-14T19:10:52.435Z,7.77
2023-04-14T19:13:19.628Z,7.80
2023-04-14T19:15:46.153Z,7.72
2023-04-14T19:18:12.654Z,7.78
2023-04-14T19:20:39.173Z,7.78
2023-04-14T19:23:05.682Z,7.91
2023-04-14T19:25:32.219Z,7.89
2023-04-14T19:28:01.193Z,7.78
2023-04-14T19:30:29.022Z,8.00
2023-04-14T19:32:55.528Z,8.09
2023-04-14T19:35:22.490Z,8.01
2023-04-14T19:37:49.061Z,7.81
2023-04-14T19:40:15.652Z,7.85
2023-04-14T19:42:42.195Z,7.89
2023-04-14T19:45:10.236Z,7.88
2023-04-14T19:47:36.696Z,7.90
2023-04-14T19:50:04.377Z,7.91
2023-04-14T19:52:30.843Z,7.95
2023-04-14T19:54:58.161Z,7.89
2023-04-14T19:57:24.787Z,8.01
2023-04-14T19:59:51.306Z,8.25
2023-04-14T20:02:18.856Z,8.05
2023-04-14T20:04:46.781Z,8.14
2023-04-14T20:07:13.389Z,8.17
2023-04-14T20:09:44.844Z,7.97
2023-04-14T20:12:11.389Z,8.06
2023-04-14T20:14:37.865Z,7.98
2023-04-14T20:17:04.459Z,8.03
2023-04-14T20:19:31.082Z,7.94
2023-04-14T20:21:57.851Z,7.97
2023-04-14T20:24:24.394Z,7.84
2023-04-14T20:26:50.883Z,7.95
2023-04-14T20:29:17.498Z,8.11
2023-04-14T20:31:44.246Z,8.12
2023-04-14T20:34:11.556Z,8.00
2023-04-14T20:36:38.037Z,8.00
2023-04-14T20:39:05.792Z,8.19
2023-04-14T20:41:36.540Z,8.05
2023-04-14T20:44:06.206Z,8.32
2023-04-14T20:46:32.913Z,8.21
2023-04-14T20:49:01.046Z,8.25
2023-04-14T20:51:27.915Z,8.34
2023-04-14T20:53:55.200Z,8.05
2023-04-14T20:56:22.518Z,8.00
2023-04-14T20:58:49.185Z,8.14
2023-04-14T21:01:15.652Z,8.04
2023-04-14T21:03:42.281Z,7.84
2023-04-14T21:06:08.895Z,7.98
2023-04-14T21:08:35.722Z,7.99
2023-04-14T21:11:15.622Z,7.84
2023-04-14T21:15:43.559Z,7.96
2023-04-14T21:16:31.011Z,8.00
2023-04-14T21:18:57.514Z,7.79
2023-04-14T21:21:24.133Z,7.82
2023-04-14T21:23:50.878Z,7.84
2023-04-14T21:26:17.792Z,8.16
2023-04-14T21:28:44.267Z,7.68
2023-04-14T21:31:11.303Z,7.52
2023-04-14T21:33:39.641Z,7.51
2023-04-14T21:36:07.045Z,7.66
2023-04-14T21:38:33.606Z,7.67
2023-04-14T21:41:00.250Z,7.62
2023-04-14T21:43:26.770Z,7.62
2023-04-14T21:45:53.803Z,7.49
2023-04-14T21:48:20.847Z,7.39
2023-04-14T21:50:47.332Z,7.37
2023-04-14T21:53:14.120Z,7.10
2023-04-14T21:55:41.031Z,7.15
2023-04-14T21:58:07.560Z,7.39
2023-04-14T22:00:34.055Z,7.38
2023-04-14T22:03:00.707Z,7.34
2023-04-14T22:05:27.312Z,7.30
2023-04-14T22:07:54.963Z,7.30
2023-04-14T22:10:24.406Z,7.32
2023-04-14T22:12:52.048Z,7.13
2023-04-14T22:15:18.675Z,7.11
2023-04-14T22:17:46.069Z,6.98
2023-04-14T22:20:12.613Z,7.15
2023-04-14T22:22:39.113Z,7.23
2023-04-14T22:25:05.958Z,7.17
2023-04-14T22:27:33.865Z,7.21
2023-04-14T22:30:01.398Z,7.31
2023-04-14T22:32:28.276Z,7.13
2023-04-14T22:34:54.773Z,7.05
2023-04-14T22:37:21.469Z,7.12
2023-04-14T22:39:47.960Z,7.08
2023-04-14T22:42:14.417Z,7.15
2023-04-14T22:44:41.188Z,7.23
2023-04-14T22:47:07.660Z,7.24
2023-04-14T22:49:34.128Z,7.34
2023-04-14T22:52:00.840Z,7.34
2023-04-14T22:54:27.337Z,7.42
2023-04-14T22:56:53.863Z,7.42
2023-04-14T22:59:20.429Z,7.24
2023-04-14T23:01:47.827Z,7.44
2023-04-14T23:04:14.755Z,7.39
2023-04-14T23:06:41.350Z,7.16
2023-04-14T23:09:07.897Z,7.23
2023-04-14T23:11:34.564Z,7.03
2023-04-14T23:14:01.563Z,7.11
2023-04-14T23:16:28.245Z,7.14
2023-04-14T23:18:54.807Z,7.29
2023-04-14T23:21:25.051Z,7.32
2023-04-14T23:23:51.671Z,7.34
2023-04-14T23:26:19.631Z,7.35
2023-04-14T23:28:46.466Z,7.27
2023-04-14T23:31:13.323Z,7.28
2023-04-14T23:33:40.056Z,7.63
2023-04-14T23:36:06.950Z,7.41
2023-04-14T23:38:33.562Z,7.30
2023-04-14T23:41:00.376Z,7.44
2023-04-14T23:43:27.590Z,7.40
2023-04-14T23:45:54.266Z,7.92
2023-04-14T23:48:20.848Z,7.57
2023-04-14T23:50:58.676Z,7.42
2023-04-14T23:53:28.146Z,7.30
2023-04-14T23:55:54.737Z,7.24
2023-04-14T23:58:26.573Z,7.10
